Lakeland, MI (48143)

5:52 PM EDT on August 01, 2015 (GMT -0400)
Cobblestone Creek | | Change Station
CLOSE
Current Station
Personal Weather Station
Location: Pinckney, MI
Elevation: 920 ft
Nearby Weather Stations

Elev 920 ft 42.45 °N, 83.91 °W | Updated 1 minute ago

Partly Cloudy
Partly Cloudy
80.0 °F
Feels Like 80 °F
N
2.0
Wind Variable Wind from WSW
Gusts 5.0 mph

Today
High -- | Low -- °F
--% Chance of Precip.
Yesterday
High -- | Low -- °F
Precip. -- in
6:27 AM 8:55 PM
Full, 97% visible
Pressure 29.88 in
Visibility 10.0 miles
Clouds Scattered Clouds 8000 ft
Heat Index 80 °F
Dew Point 56 °F
Humidity 43%
Rainfall 0.00 in
Snow Depth Not available.
UV 3 out of 12
Pollen 7.70 out of 12
Air Quality Not available.
Flu Activity Not available.
METAR KOZW 012135Z AUTO 28011G18KT 10SM SCT080 27/06 A2988 RMK AO2 T02660062

More Conditions Fewer Conditions

Pressure 29.88 in
Visibility 10.0 miles
Clouds Scattered Clouds 8000 ft
Heat Index 80 °F
Dew Point 56 °F
Humidity 43%
Rainfall 0.00 in
Snow Depth Not available.
UV 3 out of 12
Pollen 7.70 out of 12
Air Quality Not available.
Flu Activity Not available.
METAR KOZW 012135Z AUTO 28011G18KT 10SM SCT080 27/06 A2988 RMK AO2 T02660062

More Conditions Fewer Conditions

10-Day Weather Forecast

×

Almanac

Astronomy

Aug. 01, 2015 Rise Set
Actual Time
Civil Twilight
Nautical Twilight
Astronomical Twilight
Moon
Length of Visible Light
Length of Day
Tomorrow will be .
, % of the Moon is Illuminated

Today's Extremes

State Highs State Lows

Community

WunderPhotos

Upload Photos

1,843,080 photos uploaded!

WunderBlogs® & News

Nearby

Air Quality

  Air Quality AQ Index Pollutant
Not available.

Snow Depth

Station Depth Elevation

Earthquake Activity

City Distance Mag. Time & Date
Minimum magnitude displayed is 2.5.

Coastal Water Temperatures

Place Temperature

Stations

Nearby Weather Stations

Station Location Temp. Windchill Dew Point Humidity Wind Precip. Elev Updated Type